sensor_id;sensor_type;location;lat;lon;timestamp;P1;durP1;ratioP1;P2;durP2;ratioP2
62058;SDS011;48017;51.064;7.014;2022-12-26T00:01:17;1.85;;;1.00;;
62058;SDS011;48017;51.064;7.014;2022-12-26T00:03:44;1.88;;;1.10;;
62058;SDS011;48017;51.064;7.014;2022-12-26T00:06:14;1.75;;;1.10;;
62058;SDS011;48017;51.064;7.014;2022-12-26T00:08:41;2.42;;;1.10;;
62058;SDS011;48017;51.064;7.014;2022-12-26T00:11:07;2.20;;;1.20;;
62058;SDS011;48017;51.064;7.014;2022-12-26T00:13:33;2.85;;;1.25;;
62058;SDS011;48017;51.064;7.014;2022-12-26T00:15:59;4.43;;;1.30;;
62058;SDS011;48017;51.064;7.014;2022-12-26T00:18:24;2.42;;;1.40;;
62058;SDS011;48017;51.064;7.014;2022-12-26T00:20:49;3.28;;;1.45;;
62058;SDS011;48017;51.064;7.014;2022-12-26T00:23:15;3.83;;;1.60;;
62058;SDS011;48017;51.064;7.014;2022-12-26T00:25:40;2.38;;;1.45;;
62058;SDS011;48017;51.064;7.014;2022-12-26T00:28:05;3.15;;;1.60;;
62058;SDS011;48017;51.064;7.014;2022-12-26T00:30:31;2.30;;;1.40;;
62058;SDS011;48017;51.064;7.014;2022-12-26T00:32:56;3.85;;;1.70;;
62058;SDS011;48017;51.064;7.014;2022-12-26T00:35:21;4.15;;;1.48;;
62058;SDS011;48017;51.064;7.014;2022-12-26T00:37:47;4.72;;;1.10;;
62058;SDS011;48017;51.064;7.014;2022-12-26T00:40:12;3.78;;;1.40;;
62058;SDS011;48017;51.064;7.014;2022-12-26T00:42:37;2.47;;;1.30;;
62058;SDS011;48017;51.064;7.014;2022-12-26T00:45:03;3.30;;;1.30;;
62058;SDS011;48017;51.064;7.014;2022-12-26T00:47:29;2.50;;;1.30;;
62058;SDS011;48017;51.064;7.014;2022-12-26T00:49:54;2.50;;;1.27;;
62058;SDS011;48017;51.064;7.014;2022-12-26T00:52:19;2.63;;;1.30;;
62058;SDS011;48017;51.064;7.014;2022-12-26T00:54:45;2.50;;;1.20;;
62058;SDS011;48017;51.064;7.014;2022-12-26T00:57:10;1.80;;;1.05;;
62058;SDS011;48017;51.064;7.014;2022-12-26T00:59:36;2.65;;;1.40;;
62058;SDS011;48017;51.064;7.014;2022-12-26T01:02:01;2.65;;;1.40;;
62058;SDS011;48017;51.064;7.014;2022-12-26T01:04:46;3.60;;;1.38;;
62058;SDS011;48017;51.064;7.014;2022-12-26T01:07:12;4.97;;;1.30;;
62058;SDS011;48017;51.064;7.014;2022-12-26T01:09:37;2.95;;;1.25;;
62058;SDS011;48017;51.064;7.014;2022-12-26T01:12:02;2.75;;;1.20;;
62058;SDS011;48017;51.064;7.014;2022-12-26T01:14:28;2.05;;;1.20;;
62058;SDS011;48017;51.064;7.014;2022-12-26T01:16:53;2.88;;;1.30;;
62058;SDS011;48017;51.064;7.014;2022-12-26T01:19:19;2.33;;;1.30;;
62058;SDS011;48017;51.064;7.014;2022-12-26T01:21:44;2.40;;;1.17;;
62058;SDS011;48017;51.064;7.014;2022-12-26T01:24:09;3.15;;;1.40;;
62058;SDS011;48017;51.064;7.014;2022-12-26T01:26:35;2.38;;;1.25;;
62058;SDS011;48017;51.064;7.014;2022-12-26T01:29:00;3.20;;;1.50;;
62058;SDS011;48017;51.064;7.014;2022-12-26T01:31:26;2.78;;;1.00;;
62058;SDS011;48017;51.064;7.014;2022-12-26T01:33:51;5.32;;;1.45;;
62058;SDS011;48017;51.064;7.014;2022-12-26T01:36:16;3.08;;;1.35;;
62058;SDS011;48017;51.064;7.014;2022-12-26T01:38:42;2.92;;;1.10;;
62058;SDS011;48017;51.064;7.014;2022-12-26T01:41:08;4.68;;;1.48;;
62058;SDS011;48017;51.064;7.014;2022-12-26T01:43:59;3.05;;;1.15;;
62058;SDS011;48017;51.064;7.014;2022-12-26T01:46:27;1.98;;;1.20;;
62058;SDS011;48017;51.064;7.014;2022-12-26T01:48:58;2.08;;;1.20;;
62058;SDS011;48017;51.064;7.014;2022-12-26T01:51:31;3.78;;;1.13;;
62058;SDS011;48017;51.064;7.014;2022-12-26T01:54:00;2.42;;;1.20;;
62058;SDS011;48017;51.064;7.014;2022-12-26T01:56:33;3.83;;;1.30;;
62058;SDS011;48017;51.064;7.014;2022-12-26T01:59:04;3.78;;;1.50;;
62058;SDS011;48017;51.064;7.014;2022-12-26T02:01:33;3.83;;;1.20;;
62058;SDS011;48017;51.064;7.014;2022-12-26T02:04:04;1.55;;;1.08;;
62058;SDS011;48017;51.064;7.014;2022-12-26T02:06:52;3.67;;;1.50;;
62058;SDS011;48017;51.064;7.014;2022-12-26T02:09:18;4.07;;;1.33;;
62058;SDS011;48017;51.064;7.014;2022-12-26T02:11:46;2.33;;;1.13;;
62058;SDS011;48017;51.064;7.014;2022-12-26T02:14:15;3.17;;;1.60;;
62058;SDS011;48017;51.064;7.014;2022-12-26T02:16:41;4.38;;;1.23;;
62058;SDS011;48017;51.064;7.014;2022-12-26T02:19:09;2.53;;;1.20;;
62058;SDS011;48017;51.064;7.014;2022-12-26T02:33:12;2.65;;;1.33;;
62058;SDS011;48017;51.064;7.014;2022-12-26T02:41:12;2.95;;;1.25;;
62058;SDS011;48017;51.064;7.014;2022-12-26T02:47:06;2.60;;;1.50;;
62058;SDS011;48017;51.064;7.014;2022-12-26T02:50:08;3.33;;;1.27;;
62058;SDS011;48017;51.064;7.014;2022-12-26T02:56:50;2.30;;;1.13;;
62058;SDS011;48017;51.064;7.014;2022-12-26T02:59:29;3.38;;;1.27;;
62058;SDS011;48017;51.064;7.014;2022-12-26T03:02:30;3.08;;;1.08;;
62058;SDS011;48017;51.064;7.014;2022-12-26T03:05:21;4.38;;;1.10;;
62058;SDS011;48017;51.064;7.014;2022-12-26T03:08:11;2.10;;;1.10;;
62058;SDS011;48017;51.064;7.014;2022-12-26T03:11:01;2.10;;;1.17;;
62058;SDS011;48017;51.064;7.014;2022-12-26T03:13:45;3.22;;;1.10;;
62058;SDS011;48017;51.064;7.014;2022-12-26T03:16:13;2.67;;;1.27;;
62058;SDS011;48017;51.064;7.014;2022-12-26T03:19:01;3.22;;;1.20;;
62058;SDS011;48017;51.064;7.014;2022-12-26T03:21:31;2.05;;;1.17;;
62058;SDS011;48017;51.064;7.014;2022-12-26T03:24:02;2.28;;;1.08;;
62058;SDS011;48017;51.064;7.014;2022-12-26T03:26:29;3.45;;;1.20;;
62058;SDS011;48017;51.064;7.014;2022-12-26T03:29:13;2.80;;;1.30;;
62058;SDS011;48017;51.064;7.014;2022-12-26T03:32:00;3.80;;;1.15;;
62058;SDS011;48017;51.064;7.014;2022-12-26T03:34:28;2.13;;;1.00;;
62058;SDS011;48017;51.064;7.014;2022-12-26T03:48:55;4.45;;;1.38;;
62058;SDS011;48017;51.064;7.014;2022-12-26T03:52:09;2.63;;;1.40;;
62058;SDS011;48017;51.064;7.014;2022-12-26T03:58:16;2.15;;;1.33;;
62058;SDS011;48017;51.064;7.014;2022-12-26T04:01:12;2.63;;;1.33;;
62058;SDS011;48017;51.064;7.014;2022-12-26T04:03:59;2.03;;;1.15;;
62058;SDS011;48017;51.064;7.014;2022-12-26T04:06:54;2.30;;;1.23;;
62058;SDS011;48017;51.064;7.014;2022-12-26T04:09:47;2.85;;;1.33;;
62058;SDS011;48017;51.064;7.014;2022-12-26T04:12:34;4.05;;;1.45;;
62058;SDS011;48017;51.064;7.014;2022-12-26T04:15:43;2.92;;;1.65;;
62058;SDS011;48017;51.064;7.014;2022-12-26T04:22:02;3.17;;;1.20;;
62058;SDS011;48017;51.064;7.014;2022-12-26T04:25:12;2.88;;;1.30;;
62058;SDS011;48017;51.064;7.014;2022-12-26T04:28:03;2.50;;;1.23;;
62058;SDS011;48017;51.064;7.014;2022-12-26T04:30:49;1.98;;;1.17;;
62058;SDS011;48017;51.064;7.014;2022-12-26T04:33:40;2.17;;;1.20;;
62058;SDS011;48017;51.064;7.014;2022-12-26T04:36:37;2.17;;;1.27;;
62058;SDS011;48017;51.064;7.014;2022-12-26T04:39:28;2.63;;;1.33;;
62058;SDS011;48017;51.064;7.014;2022-12-26T04:42:16;2.42;;;1.40;;
62058;SDS011;48017;51.064;7.014;2022-12-26T04:45:03;2.65;;;1.20;;
62058;SDS011;48017;51.064;7.014;2022-12-26T04:47:30;2.75;;;1.48;;
62058;SDS011;48017;51.064;7.014;2022-12-26T04:49:57;1.80;;;1.17;;
62058;SDS011;48017;51.064;7.014;2022-12-26T04:52:40;3.13;;;1.70;;
62058;SDS011;48017;51.064;7.014;2022-12-26T04:55:25;2.75;;;1.40;;
62058;SDS011;48017;51.064;7.014;2022-12-26T04:57:55;2.40;;;1.40;;
62058;SDS011;48017;51.064;7.014;2022-12-26T05:00:20;2.85;;;1.65;;
62058;SDS011;48017;51.064;7.014;2022-12-26T05:02:48;3.67;;;1.60;;
62058;SDS011;48017;51.064;7.014;2022-12-26T05:05:35;2.72;;;1.50;;
62058;SDS011;48017;51.064;7.014;2022-12-26T05:08:32;2.75;;;1.70;;
62058;SDS011;48017;51.064;7.014;2022-12-26T05:11:18;3.33;;;1.30;;
62058;SDS011;48017;51.064;7.014;2022-12-26T05:13:43;2.90;;;1.63;;
62058;SDS011;48017;51.064;7.014;2022-12-26T05:16:08;3.05;;;2.00;;
62058;SDS011;48017;51.064;7.014;2022-12-26T05:18:52;3.70;;;2.08;;
62058;SDS011;48017;51.064;7.014;2022-12-26T05:21:36;2.92;;;2.03;;
62058;SDS011;48017;51.064;7.014;2022-12-26T05:24:21;3.30;;;2.22;;
62058;SDS011;48017;51.064;7.014;2022-12-26T05:27:08;2.88;;;2.00;;
62058;SDS011;48017;51.064;7.014;2022-12-26T05:29:56;3.35;;;2.10;;
62058;SDS011;48017;51.064;7.014;2022-12-26T05:32:22;3.58;;;2.25;;
62058;SDS011;48017;51.064;7.014;2022-12-26T05:35:06;2.85;;;2.17;;
62058;SDS011;48017;51.064;7.014;2022-12-26T05:37:32;5.30;;;2.35;;
62058;SDS011;48017;51.064;7.014;2022-12-26T05:39:57;3.00;;;1.98;;
62058;SDS011;48017;51.064;7.014;2022-12-26T05:42:22;3.50;;;2.17;;
62058;SDS011;48017;51.064;7.014;2022-12-26T05:44:48;3.38;;;2.30;;
62058;SDS011;48017;51.064;7.014;2022-12-26T05:47:13;3.53;;;2.20;;
62058;SDS011;48017;51.064;7.014;2022-12-26T05:49:38;3.60;;;2.22;;
62058;SDS011;48017;51.064;7.014;2022-12-26T05:52:04;3.13;;;2.25;;
62058;SDS011;48017;51.064;7.014;2022-12-26T05:54:29;3.50;;;2.30;;
62058;SDS011;48017;51.064;7.014;2022-12-26T05:56:54;3.53;;;1.98;;
62058;SDS011;48017;51.064;7.014;2022-12-26T05:59:20;3.22;;;1.63;;
62058;SDS011;48017;51.064;7.014;2022-12-26T06:01:45;5.85;;;1.95;;
62058;SDS011;48017;51.064;7.014;2022-12-26T06:04:10;4.18;;;1.67;;
62058;SDS011;48017;51.064;7.014;2022-12-26T06:06:36;2.90;;;1.90;;
62058;SDS011;48017;51.064;7.014;2022-12-26T06:09:01;7.03;;;1.98;;
62058;SDS011;48017;51.064;7.014;2022-12-26T06:11:26;4.90;;;2.25;;
62058;SDS011;48017;51.064;7.014;2022-12-26T06:13:52;2.67;;;1.73;;
62058;SDS011;48017;51.064;7.014;2022-12-26T06:16:18;2.67;;;1.58;;
62058;SDS011;48017;51.064;7.014;2022-12-26T06:18:44;2.88;;;1.85;;
62058;SDS011;48017;51.064;7.014;2022-12-26T06:21:12;3.13;;;1.35;;
62058;SDS011;48017;51.064;7.014;2022-12-26T06:23:39;2.10;;;1.30;;
62058;SDS011;48017;51.064;7.014;2022-12-26T06:26:05;2.55;;;1.38;;
62058;SDS011;48017;51.064;7.014;2022-12-26T06:28:33;2.42;;;1.00;;
62058;SDS011;48017;51.064;7.014;2022-12-26T06:31:09;3.05;;;1.48;;
62058;SDS011;48017;51.064;7.014;2022-12-26T06:33:36;1.92;;;1.15;;
62058;SDS011;48017;51.064;7.014;2022-12-26T06:36:03;1.98;;;1.00;;
62058;SDS011;48017;51.064;7.014;2022-12-26T06:38:33;2.42;;;1.20;;
62058;SDS011;48017;51.064;7.014;2022-12-26T06:40:59;5.47;;;1.10;;
62058;SDS011;48017;51.064;7.014;2022-12-26T06:43:25;3.03;;;1.27;;
62058;SDS011;48017;51.064;7.014;2022-12-26T06:45:57;2.45;;;0.98;;
62058;SDS011;48017;51.064;7.014;2022-12-26T06:48:23;1.88;;;1.08;;
62058;SDS011;48017;51.064;7.014;2022-12-26T06:50:49;2.17;;;0.90;;
62058;SDS011;48017;51.064;7.014;2022-12-26T06:53:14;2.33;;;0.93;;
62058;SDS011;48017;51.064;7.014;2022-12-26T06:55:40;1.70;;;1.00;;
62058;SDS011;48017;51.064;7.014;2022-12-26T06:58:05;1.77;;;0.90;;
62058;SDS011;48017;51.064;7.014;2022-12-26T07:00:30;1.55;;;0.82;;
62058;SDS011;48017;51.064;7.014;2022-12-26T07:02:56;4.32;;;0.95;;
62058;SDS011;48017;51.064;7.014;2022-12-26T07:05:21;2.83;;;1.02;;
62058;SDS011;48017;51.064;7.014;2022-12-26T07:07:50;1.45;;;0.63;;
62058;SDS011;48017;51.064;7.014;2022-12-26T07:10:17;1.58;;;0.80;;
62058;SDS011;48017;51.064;7.014;2022-12-26T07:12:45;1.88;;;0.55;;
62058;SDS011;48017;51.064;7.014;2022-12-26T07:15:12;3.53;;;0.75;;
62058;SDS011;48017;51.064;7.014;2022-12-26T07:17:38;1.10;;;0.77;;
62058;SDS011;48017;51.064;7.014;2022-12-26T07:20:04;1.55;;;0.88;;
62058;SDS011;48017;51.064;7.014;2022-12-26T07:22:30;1.02;;;0.68;;
62058;SDS011;48017;51.064;7.014;2022-12-26T07:24:55;0.93;;;0.70;;
62058;SDS011;48017;51.064;7.014;2022-12-26T07:27:21;1.20;;;0.60;;
62058;SDS011;48017;51.064;7.014;2022-12-26T07:29:46;1.70;;;0.60;;
62058;SDS011;48017;51.064;7.014;2022-12-26T07:32:12;1.50;;;0.80;;
62058;SDS011;48017;51.064;7.014;2022-12-26T07:34:37;3.53;;;0.90;;
62058;SDS011;48017;51.064;7.014;2022-12-26T07:37:03;1.23;;;0.70;;
62058;SDS011;48017;51.064;7.014;2022-12-26T07:39:28;1.98;;;0.82;;
62058;SDS011;48017;51.064;7.014;2022-12-26T07:41:53;1.48;;;0.82;;
62058;SDS011;48017;51.064;7.014;2022-12-26T07:44:22;1.45;;;0.63;;
62058;SDS011;48017;51.064;7.014;2022-12-26T07:46:48;1.63;;;0.98;;
62058;SDS011;48017;51.064;7.014;2022-12-26T07:49:13;1.25;;;0.70;;
62058;SDS011;48017;51.064;7.014;2022-12-26T07:51:39;2.13;;;0.80;;
62058;SDS011;48017;51.064;7.014;2022-12-26T07:54:05;2.17;;;0.68;;
62058;SDS011;48017;51.064;7.014;2022-12-26T07:56:31;1.55;;;0.90;;
62058;SDS011;48017;51.064;7.014;2022-12-26T07:58:56;1.00;;;0.57;;
62058;SDS011;48017;51.064;7.014;2022-12-26T08:01:22;0.82;;;0.50;;
62058;SDS011;48017;51.064;7.014;2022-12-26T08:03:48;1.50;;;0.70;;
62058;SDS011;48017;51.064;7.014;2022-12-26T08:06:14;1.30;;;0.70;;
62058;SDS011;48017;51.064;7.014;2022-12-26T08:08:39;2.15;;;0.90;;
62058;SDS011;48017;51.064;7.014;2022-12-26T08:11:05;1.60;;;0.80;;
62058;SDS011;48017;51.064;7.014;2022-12-26T08:13:33;1.70;;;0.90;;
62058;SDS011;48017;51.064;7.014;2022-12-26T08:16:02;1.80;;;0.88;;
62058;SDS011;48017;51.064;7.014;2022-12-26T08:18:32;2.00;;;1.10;;
62058;SDS011;48017;51.064;7.014;2022-12-26T08:20:57;1.52;;;0.88;;
62058;SDS011;48017;51.064;7.014;2022-12-26T08:23:23;1.63;;;0.85;;
62058;SDS011;48017;51.064;7.014;2022-12-26T08:25:48;4.53;;;1.10;;
62058;SDS011;48017;51.064;7.014;2022-12-26T08:28:13;1.70;;;0.70;;
62058;SDS011;48017;51.064;7.014;2022-12-26T08:30:39;3.22;;;1.00;;
62058;SDS011;48017;51.064;7.014;2022-12-26T08:33:08;2.40;;;1.10;;
62058;SDS011;48017;51.064;7.014;2022-12-26T08:35:34;3.28;;;1.42;;
62058;SDS011;48017;51.064;7.014;2022-12-26T08:38:01;3.15;;;1.50;;
62058;SDS011;48017;51.064;7.014;2022-12-26T08:40:27;5.40;;;1.58;;
62058;SDS011;48017;51.064;7.014;2022-12-26T08:42:52;3.15;;;1.40;;
62058;SDS011;48017;51.064;7.014;2022-12-26T08:45:17;4.22;;;1.30;;
62058;SDS011;48017;51.064;7.014;2022-12-26T08:47:43;1.77;;;0.90;;
62058;SDS011;48017;51.064;7.014;2022-12-26T08:50:08;2.42;;;1.00;;
62058;SDS011;48017;51.064;7.014;2022-12-26T08:52:34;2.38;;;1.10;;
62058;SDS011;48017;51.064;7.014;2022-12-26T08:55:02;1.65;;;0.70;;
62058;SDS011;48017;51.064;7.014;2022-12-26T08:57:28;3.10;;;1.08;;
62058;SDS011;48017;51.064;7.014;2022-12-26T08:59:53;1.70;;;0.98;;
62058;SDS011;48017;51.064;7.014;2022-12-26T09:02:19;1.80;;;1.00;;
62058;SDS011;48017;51.064;7.014;2022-12-26T09:04:44;2.00;;;1.00;;
62058;SDS011;48017;51.064;7.014;2022-12-26T09:07:09;1.95;;;1.02;;
62058;SDS011;48017;51.064;7.014;2022-12-26T09:09:35;2.60;;;1.10;;
62058;SDS011;48017;51.064;7.014;2022-12-26T09:12:00;2.95;;;1.30;;
62058;SDS011;48017;51.064;7.014;2022-12-26T09:14:26;2.58;;;1.58;;
62058;SDS011;48017;51.064;7.014;2022-12-26T09:16:51;2.80;;;1.30;;
62058;SDS011;48017;51.064;7.014;2022-12-26T09:19:18;2.35;;;1.20;;
62058;SDS011;48017;51.064;7.014;2022-12-26T09:21:45;4.65;;;1.30;;
62058;SDS011;48017;51.064;7.014;2022-12-26T09:24:13;2.93;;;1.10;;
62058;SDS011;48017;51.064;7.014;2022-12-26T09:26:40;2.42;;;1.00;;
62058;SDS011;48017;51.064;7.014;2022-12-26T09:29:07;2.22;;;1.13;;
62058;SDS011;48017;51.064;7.014;2022-12-26T09:31:34;2.85;;;1.00;;
62058;SDS011;48017;51.064;7.014;2022-12-26T09:34:00;2.17;;;0.98;;
62058;SDS011;48017;51.064;7.014;2022-12-26T09:36:28;2.65;;;1.10;;
62058;SDS011;48017;51.064;7.014;2022-12-26T09:38:56;2.70;;;1.20;;
62058;SDS011;48017;51.064;7.014;2022-12-26T09:49:29;3.65;;;1.15;;
62058;SDS011;48017;51.064;7.014;2022-12-26T09:51:59;2.75;;;1.00;;
62058;SDS011;48017;51.064;7.014;2022-12-26T09:57:15;4.30;;;1.00;;
62058;SDS011;48017;51.064;7.014;2022-12-26T09:59:49;3.05;;;1.20;;
62058;SDS011;48017;51.064;7.014;2022-12-26T10:02:20;1.55;;;0.98;;
62058;SDS011;48017;51.064;7.014;2022-12-26T10:04:47;1.75;;;1.00;;
62058;SDS011;48017;51.064;7.014;2022-12-26T10:12:34;1.70;;;0.70;;
62058;SDS011;48017;51.064;7.014;2022-12-26T10:24:13;2.30;;;0.70;;
62058;SDS011;48017;51.064;7.014;2022-12-26T10:26:43;1.95;;;0.80;;
62058;SDS011;48017;51.064;7.014;2022-12-26T10:34:41;3.90;;;0.68;;
62058;SDS011;48017;51.064;7.014;2022-12-26T10:37:14;1.00;;;0.60;;
62058;SDS011;48017;51.064;7.014;2022-12-26T10:39:48;1.60;;;0.68;;
62058;SDS011;48017;51.064;7.014;2022-12-26T10:42:28;1.88;;;1.00;;
62058;SDS011;48017;51.064;7.014;2022-12-26T10:44:57;1.95;;;0.82;;
62058;SDS011;48017;51.064;7.014;2022-12-26T10:49:51;1.02;;;0.50;;
62058;SDS011;48017;51.064;7.014;2022-12-26T10:52:18;5.10;;;0.77;;
62058;SDS011;48017;51.064;7.014;2022-12-26T10:54:52;2.35;;;0.75;;
62058;SDS011;48017;51.064;7.014;2022-12-26T10:57:20;2.85;;;0.80;;
62058;SDS011;48017;51.064;7.014;2022-12-26T10:59:48;1.27;;;0.63;;
62058;SDS011;48017;51.064;7.014;2022-12-26T11:02:29;4.50;;;0.98;;
62058;SDS011;48017;51.064;7.014;2022-12-26T11:05:03;1.15;;;0.68;;
62058;SDS011;48017;51.064;7.014;2022-12-26T11:07:31;1.75;;;0.90;;
62058;SDS011;48017;51.064;7.014;2022-12-26T11:09:59;1.45;;;0.80;;
62058;SDS011;48017;51.064;7.014;2022-12-26T11:12:29;1.83;;;0.77;;
62058;SDS011;48017;51.064;7.014;2022-12-26T11:15:30;1.48;;;0.80;;
62058;SDS011;48017;51.064;7.014;2022-12-26T11:20:40;2.38;;;0.75;;
62058;SDS011;48017;51.064;7.014;2022-12-26T11:23:22;2.35;;;0.63;;
62058;SDS011;48017;51.064;7.014;2022-12-26T11:25:51;2.47;;;0.70;;
62058;SDS011;48017;51.064;7.014;2022-12-26T11:28:29;2.03;;;0.60;;
62058;SDS011;48017;51.064;7.014;2022-12-26T11:31:00;1.52;;;0.70;;
62058;SDS011;48017;51.064;7.014;2022-12-26T11:38:43;1.35;;;0.60;;
62058;SDS011;48017;51.064;7.014;2022-12-26T11:41:33;1.40;;;0.70;;
62058;SDS011;48017;51.064;7.014;2022-12-26T11:46:54;0.93;;;0.57;;
62058;SDS011;48017;51.064;7.014;2022-12-26T11:51:51;1.73;;;0.70;;
62058;SDS011;48017;51.064;7.014;2022-12-26T11:54:22;1.80;;;0.50;;
62058;SDS011;48017;51.064;7.014;2022-12-26T11:57:15;3.22;;;0.60;;
62058;SDS011;48017;51.064;7.014;2022-12-26T11:59:43;1.83;;;0.57;;
62058;SDS011;48017;51.064;7.014;2022-12-26T12:04:43;1.80;;;0.80;;
62058;SDS011;48017;51.064;7.014;2022-12-26T12:09:47;0.98;;;0.50;;
62058;SDS011;48017;51.064;7.014;2022-12-26T12:12:24;1.95;;;0.98;;
62058;SDS011;48017;51.064;7.014;2022-12-26T12:15:16;1.25;;;0.50;;
62058;SDS011;48017;51.064;7.014;2022-12-26T12:26:00;2.83;;;0.80;;
62058;SDS011;48017;51.064;7.014;2022-12-26T12:31:15;1.45;;;0.80;;
62058;SDS011;48017;51.064;7.014;2022-12-26T12:36:28;2.85;;;0.65;;
62058;SDS011;48017;51.064;7.014;2022-12-26T12:41:39;1.65;;;0.60;;
62058;SDS011;48017;51.064;7.014;2022-12-26T12:44:37;2.55;;;0.50;;
62058;SDS011;48017;51.064;7.014;2022-12-26T12:53:05;1.13;;;0.60;;
62058;SDS011;48017;51.064;7.014;2022-12-26T12:58:41;1.13;;;0.55;;
62058;SDS011;48017;51.064;7.014;2022-12-26T13:01:23;3.33;;;0.60;;
62058;SDS011;48017;51.064;7.014;2022-12-26T13:03:55;3.17;;;1.52;;
62058;SDS011;48017;51.064;7.014;2022-12-26T13:06:29;1.10;;;0.50;;
62058;SDS011;48017;51.064;7.014;2022-12-26T13:09:02;3.53;;;1.15;;
62058;SDS011;48017;51.064;7.014;2022-12-26T13:11:38;2.45;;;0.70;;
62058;SDS011;48017;51.064;7.014;2022-12-26T13:17:16;1.52;;;0.80;;
62058;SDS011;48017;51.064;7.014;2022-12-26T13:22:30;1.15;;;0.68;;
62058;SDS011;48017;51.064;7.014;2022-12-26T13:25:19;3.00;;;1.02;;
62058;SDS011;48017;51.064;7.014;2022-12-26T13:27:48;2.53;;;0.90;;
62058;SDS011;48017;51.064;7.014;2022-12-26T13:30:17;3.22;;;1.10;;
62058;SDS011;48017;51.064;7.014;2022-12-26T13:32:43;1.25;;;0.70;;
62058;SDS011;48017;51.064;7.014;2022-12-26T13:35:45;1.42;;;0.70;;
62058;SDS011;48017;51.064;7.014;2022-12-26T13:38:15;2.23;;;0.60;;
62058;SDS011;48017;51.064;7.014;2022-12-26T13:40:48;1.00;;;0.55;;
62058;SDS011;48017;51.064;7.014;2022-12-26T13:44:03;2.40;;;0.70;;
62058;SDS011;48017;51.064;7.014;2022-12-26T13:54:34;3.90;;;1.00;;
62058;SDS011;48017;51.064;7.014;2022-12-26T13:57:06;1.25;;;0.70;;
62058;SDS011;48017;51.064;7.014;2022-12-26T13:59:43;3.13;;;1.27;;
62058;SDS011;48017;51.064;7.014;2022-12-26T14:13:19;3.05;;;0.98;;
62058;SDS011;48017;51.064;7.014;2022-12-26T14:16:02;3.08;;;1.10;;
62058;SDS011;48017;51.064;7.014;2022-12-26T14:18:42;2.60;;;1.10;;
62058;SDS011;48017;51.064;7.014;2022-12-26T14:29:47;9.82;;;1.80;;
62058;SDS011;48017;51.064;7.014;2022-12-26T14:32:33;8.52;;;2.03;;
62058;SDS011;48017;51.064;7.014;2022-12-26T14:40:58;4.15;;;1.60;;
62058;SDS011;48017;51.064;7.014;2022-12-26T14:46:04;3.08;;;1.10;;
62058;SDS011;48017;51.064;7.014;2022-12-26T14:48:52;1.58;;;0.80;;
62058;SDS011;48017;51.064;7.014;2022-12-26T14:53:45;1.83;;;0.70;;
62058;SDS011;48017;51.064;7.014;2022-12-26T14:56:46;2.25;;;0.80;;
62058;SDS011;48017;51.064;7.014;2022-12-26T14:59:23;2.15;;;0.88;;
62058;SDS011;48017;51.064;7.014;2022-12-26T15:02:05;3.88;;;0.85;;
62058;SDS011;48017;51.064;7.014;2022-12-26T15:13:04;3.25;;;0.95;;
62058;SDS011;48017;51.064;7.014;2022-12-26T15:23:37;2.90;;;1.00;;
62058;SDS011;48017;51.064;7.014;2022-12-26T15:39:36;2.45;;;1.05;;
62058;SDS011;48017;51.064;7.014;2022-12-26T15:56:20;5.10;;;1.23;;
62058;SDS011;48017;51.064;7.014;2022-12-26T16:01:55;3.22;;;1.10;;
62058;SDS011;48017;51.064;7.014;2022-12-26T16:04:42;3.88;;;1.23;;
62058;SDS011;48017;51.064;7.014;2022-12-26T16:07:22;3.28;;;1.30;;
62058;SDS011;48017;51.064;7.014;2022-12-26T16:19:39;3.92;;;1.30;;
62058;SDS011;48017;51.064;7.014;2022-12-26T16:22:06;2.40;;;1.05;;
62058;SDS011;48017;51.064;7.014;2022-12-26T16:24:54;3.63;;;0.90;;
62058;SDS011;48017;51.064;7.014;2022-12-26T16:27:21;2.95;;;1.27;;
62058;SDS011;48017;51.064;7.014;2022-12-26T16:32:19;4.95;;;1.33;;
62058;SDS011;48017;51.064;7.014;2022-12-26T16:37:17;7.75;;;1.50;;
62058;SDS011;48017;51.064;7.014;2022-12-26T16:40:03;3.58;;;1.23;;
62058;SDS011;48017;51.064;7.014;2022-12-26T16:42:41;4.30;;;1.30;;
62058;SDS011;48017;51.064;7.014;2022-12-26T16:45:17;4.78;;;1.70;;
62058;SDS011;48017;51.064;7.014;2022-12-26T16:47:44;7.75;;;1.55;;
62058;SDS011;48017;51.064;7.014;2022-12-26T16:50:14;3.55;;;1.40;;
62058;SDS011;48017;51.064;7.014;2022-12-26T16:52:42;3.72;;;1.45;;
62058;SDS011;48017;51.064;7.014;2022-12-26T16:57:55;3.83;;;1.58;;
62058;SDS011;48017;51.064;7.014;2022-12-26T17:00:24;2.45;;;1.13;;
62058;SDS011;48017;51.064;7.014;2022-12-26T17:02:52;2.88;;;1.40;;
62058;SDS011;48017;51.064;7.014;2022-12-26T17:05:30;3.42;;;1.35;;
62058;SDS011;48017;51.064;7.014;2022-12-26T17:08:00;5.70;;;1.33;;
62058;SDS011;48017;51.064;7.014;2022-12-26T17:10:32;3.08;;;1.45;;
62058;SDS011;48017;51.064;7.014;2022-12-26T17:13:00;4.30;;;1.60;;
62058;SDS011;48017;51.064;7.014;2022-12-26T17:15:36;3.75;;;1.60;;
62058;SDS011;48017;51.064;7.014;2022-12-26T17:21:06;3.92;;;1.88;;
62058;SDS011;48017;51.064;7.014;2022-12-26T17:23:41;4.18;;;2.00;;
62058;SDS011;48017;51.064;7.014;2022-12-26T17:26:15;3.33;;;1.77;;
62058;SDS011;48017;51.064;7.014;2022-12-26T17:28:46;3.78;;;1.85;;
62058;SDS011;48017;51.064;7.014;2022-12-26T17:31:16;4.10;;;1.80;;
62058;SDS011;48017;51.064;7.014;2022-12-26T17:33:45;4.30;;;1.73;;
62058;SDS011;48017;51.064;7.014;2022-12-26T17:36:12;5.35;;;2.30;;
62058;SDS011;48017;51.064;7.014;2022-12-26T17:38:39;5.63;;;2.10;;
62058;SDS011;48017;51.064;7.014;2022-12-26T17:41:08;5.97;;;2.33;;
62058;SDS011;48017;51.064;7.014;2022-12-26T17:43:37;3.78;;;1.70;;
62058;SDS011;48017;51.064;7.014;2022-12-26T17:46:04;3.97;;;1.67;;
62058;SDS011;48017;51.064;7.014;2022-12-26T17:48:32;2.58;;;1.30;;
62058;SDS011;48017;51.064;7.014;2022-12-26T17:50:59;7.65;;;1.85;;
62058;SDS011;48017;51.064;7.014;2022-12-26T17:55:54;3.55;;;1.35;;
62058;SDS011;48017;51.064;7.014;2022-12-26T17:58:21;3.90;;;1.20;;
62058;SDS011;48017;51.064;7.014;2022-12-26T18:00:47;2.13;;;1.13;;
62058;SDS011;48017;51.064;7.014;2022-12-26T18:03:14;3.80;;;1.27;;
62058;SDS011;48017;51.064;7.014;2022-12-26T18:05:42;1.95;;;1.20;;
62058;SDS011;48017;51.064;7.014;2022-12-26T18:08:11;7.03;;;1.90;;
62058;SDS011;48017;51.064;7.014;2022-12-26T18:10:52;3.55;;;1.20;;
62058;SDS011;48017;51.064;7.014;2022-12-26T18:13:18;2.40;;;0.68;;
62058;SDS011;48017;51.064;7.014;2022-12-26T18:15:43;4.60;;;1.30;;
62058;SDS011;48017;51.064;7.014;2022-12-26T18:18:13;3.78;;;1.20;;
62058;SDS011;48017;51.064;7.014;2022-12-26T18:20:46;2.67;;;1.25;;
62058;SDS011;48017;51.064;7.014;2022-12-26T18:23:12;2.83;;;1.05;;
62058;SDS011;48017;51.064;7.014;2022-12-26T18:25:37;1.70;;;0.90;;
62058;SDS011;48017;51.064;7.014;2022-12-26T18:28:02;1.98;;;1.02;;
62058;SDS011;48017;51.064;7.014;2022-12-26T18:30:28;2.22;;;0.82;;
62058;SDS011;48017;51.064;7.014;2022-12-26T18:32:54;2.17;;;0.90;;
62058;SDS011;48017;51.064;7.014;2022-12-26T18:35:19;4.15;;;1.17;;
62058;SDS011;48017;51.064;7.014;2022-12-26T18:37:48;1.58;;;0.90;;
62058;SDS011;48017;51.064;7.014;2022-12-26T18:40:38;4.40;;;1.13;;
62058;SDS011;48017;51.064;7.014;2022-12-26T18:43:05;2.22;;;0.93;;
62058;SDS011;48017;51.064;7.014;2022-12-26T18:45:32;2.30;;;0.75;;
62058;SDS011;48017;51.064;7.014;2022-12-26T18:47:59;1.52;;;0.60;;
62058;SDS011;48017;51.064;7.014;2022-12-26T18:50:25;3.75;;;0.80;;
62058;SDS011;48017;51.064;7.014;2022-12-26T18:52:52;2.42;;;1.00;;
62058;SDS011;48017;51.064;7.014;2022-12-26T18:55:17;3.10;;;0.90;;
62058;SDS011;48017;51.064;7.014;2022-12-26T18:57:43;2.78;;;1.10;;
62058;SDS011;48017;51.064;7.014;2022-12-26T19:00:11;4.63;;;1.10;;
62058;SDS011;48017;51.064;7.014;2022-12-26T19:02:38;3.55;;;1.05;;
62058;SDS011;48017;51.064;7.014;2022-12-26T19:05:03;1.77;;;0.98;;
62058;SDS011;48017;51.064;7.014;2022-12-26T19:07:29;5.18;;;1.13;;
62058;SDS011;48017;51.064;7.014;2022-12-26T19:09:54;4.22;;;1.45;;